weather.gov     
National Weather Service

Other Surface Observations
NWS Homepage
This page is being discontinued on March 12, 2014.
The same data is available at this site. Please update your bookmarks.
Thank you, and we apologize for the inconvenience.
Please send an email to SR-SRH.Webmaster@noaa.gov with any concerns.


Current Version
Previous Version:    01  02  03  04  05  06  07  08  09  10  11  12  13  14  15  16  17  18  19  20  21  22  23  24  25  26  27  28  29  30  
   31  32  33  34  35  36  37  38  39  40  41  42  43  44  45  46  47  48  49  50  51  52  53  54  55  56  57  58  59  60  
[Printable]
787
SXUS55 KTFX 170121
OSOTFX

AREA AWOS OBSERVATIONS
NATIONAL WEATHER SERVICE GREAT FALLS MT
0720 PM MDT Wed Apr 16 2014

METAR K1S3 170115Z AUTO 07007KT 10SM 05/M03 A3007
METAR K38S 170115Z AUTO 30010KT 10SM 08/M06 A3001
METAR K6S0 170115Z AUTO 03007KT 10SM 05/M01 A3000
METAR K6S5 170115Z AUTO 29003KT 10SM 09/M04 A2999
METAR K79S 170115Z AUTO 08005KT 08/M02 A3000
METAR K88M 170115Z AUTO 20011KT 10SM 10/M02 A2992
METAR KEKS 170115Z AUTO 26005KT 10SM 08/M10 A3002
METAR KPO1 170115Z AUTO 07010G15KT 7SM M02/M07 A3021
METAR KPWD 170115Z AUTO 11009KT 10SM M03/M07 A3023
METAR KS59 170115Z AUTO 16004KT 10SM 09/00 A2996
METAR KS71 170115Z AUTO 11011G15KT 10SM 06/M04 A3005




U.S. Dept. of Commerce
NOAA National Weather Service
1325 East West Highway
Silver Spring, MD 20910
E-mail: w-nws.webmaster@noaa.gov
Page last modified: May 16, 2007
NATIONAL WEATHER SERVICE: for Safety, for Work, for Fun - FOR LIFE